sensor_id;sensor_type;location;lat;lon;timestamp;temperature;humidity
4354;DHT22;11018;51.258;6.806;2023-04-07T00:02:05;8.80;99.90
4354;DHT22;11018;51.258;6.806;2023-04-07T00:04:30;8.90;99.90
4354;DHT22;11018;51.258;6.806;2023-04-07T00:06:56;9.00;99.90
4354;DHT22;11018;51.258;6.806;2023-04-07T00:09:21;9.00;99.90
4354;DHT22;11018;51.258;6.806;2023-04-07T00:11:47;9.00;99.90
4354;DHT22;11018;51.258;6.806;2023-04-07T00:14:13;8.90;99.90
4354;DHT22;11018;51.258;6.806;2023-04-07T00:16:38;8.90;99.90
4354;DHT22;11018;51.258;6.806;2023-04-07T00:19:04;8.90;99.90
4354;DHT22;11018;51.258;6.806;2023-04-07T00:21:30;8.90;99.90
4354;DHT22;11018;51.258;6.806;2023-04-07T00:23:56;8.90;99.90
4354;DHT22;11018;51.258;6.806;2023-04-07T00:26:22;9.00;99.90
4354;DHT22;11018;51.258;6.806;2023-04-07T00:28:47;9.00;99.90
4354;DHT22;11018;51.258;6.806;2023-04-07T00:31:13;9.00;99.90
4354;DHT22;11018;51.258;6.806;2023-04-07T00:33:39;9.00;99.90
4354;DHT22;11018;51.258;6.806;2023-04-07T00:36:04;9.00;99.90
4354;DHT22;11018;51.258;6.806;2023-04-07T00:38:30;9.00;99.90
4354;DHT22;11018;51.258;6.806;2023-04-07T00:40:57;9.00;99.90
4354;DHT22;11018;51.258;6.806;2023-04-07T00:43:23;9.00;99.90
4354;DHT22;11018;51.258;6.806;2023-04-07T00:45:50;9.00;99.90
4354;DHT22;11018;51.258;6.806;2023-04-07T00:48:15;9.00;99.90
4354;DHT22;11018;51.258;6.806;2023-04-07T00:50:41;9.00;99.90
4354;DHT22;11018;51.258;6.806;2023-04-07T00:53:07;9.00;99.90
4354;DHT22;11018;51.258;6.806;2023-04-07T00:55:33;9.00;99.90
4354;DHT22;11018;51.258;6.806;2023-04-07T00:57:58;9.00;99.90
4354;DHT22;11018;51.258;6.806;2023-04-07T01:00:25;9.10;99.90
4354;DHT22;11018;51.258;6.806;2023-04-07T01:03:00;9.10;99.90
4354;DHT22;11018;51.258;6.806;2023-04-07T01:05:35;9.00;99.90
4354;DHT22;11018;51.258;6.806;2023-04-07T01:08:14;9.00;99.90
4354;DHT22;11018;51.258;6.806;2023-04-07T01:10:51;9.00;99.90
4354;DHT22;11018;51.258;6.806;2023-04-07T01:13:36;9.10;99.90
4354;DHT22;11018;51.258;6.806;2023-04-07T01:16:04;9.10;99.90
4354;DHT22;11018;51.258;6.806;2023-04-07T01:18:35;9.10;99.90
4354;DHT22;11018;51.258;6.806;2023-04-07T01:21:08;9.10;99.90
4354;DHT22;11018;51.258;6.806;2023-04-07T01:26:24;9.40;99.90
4354;DHT22;11018;51.258;6.806;2023-04-07T01:31:38;9.50;99.90
4354;DHT22;11018;51.258;6.806;2023-04-07T01:34:05;9.30;99.90
4354;DHT22;11018;51.258;6.806;2023-04-07T01:36:32;9.20;99.90
4354;DHT22;11018;51.258;6.806;2023-04-07T01:38:59;9.20;99.90
4354;DHT22;11018;51.258;6.806;2023-04-07T01:41:25;9.20;99.90
4354;DHT22;11018;51.258;6.806;2023-04-07T01:43:53;9.20;99.90
4354;DHT22;11018;51.258;6.806;2023-04-07T01:46:19;9.10;99.90
4354;DHT22;11018;51.258;6.806;2023-04-07T01:48:46;9.10;99.90
4354;DHT22;11018;51.258;6.806;2023-04-07T01:51:13;9.10;99.90
4354;DHT22;11018;51.258;6.806;2023-04-07T01:53:42;9.10;99.90
4354;DHT22;11018;51.258;6.806;2023-04-07T01:56:08;9.10;99.90
4354;DHT22;11018;51.258;6.806;2023-04-07T01:58:33;9.20;99.90
4354;DHT22;11018;51.258;6.806;2023-04-07T02:00:59;9.20;99.90
4354;DHT22;11018;51.258;6.806;2023-04-07T02:03:39;9.40;99.90
4354;DHT22;11018;51.258;6.806;2023-04-07T02:06:06;9.40;99.90
4354;DHT22;11018;51.258;6.806;2023-04-07T02:08:33;9.50;99.90
4354;DHT22;11018;51.258;6.806;2023-04-07T02:11:01;9.70;99.90
4354;DHT22;11018;51.258;6.806;2023-04-07T02:13:28;9.70;99.90
4354;DHT22;11018;51.258;6.806;2023-04-07T02:15:56;9.70;99.90
4354;DHT22;11018;51.258;6.806;2023-04-07T02:18:22;9.70;99.90
4354;DHT22;11018;51.258;6.806;2023-04-07T02:20:51;9.70;99.90
4354;DHT22;11018;51.258;6.806;2023-04-07T02:23:17;9.70;99.90
4354;DHT22;11018;51.258;6.806;2023-04-07T02:25:42;9.60;99.90
4354;DHT22;11018;51.258;6.806;2023-04-07T02:28:08;9.70;99.90
4354;DHT22;11018;51.258;6.806;2023-04-07T02:30:34;9.70;99.90
4354;DHT22;11018;51.258;6.806;2023-04-07T02:33:00;10.00;99.90
4354;DHT22;11018;51.258;6.806;2023-04-07T02:35:26;10.00;99.90
4354;DHT22;11018;51.258;6.806;2023-04-07T02:37:52;10.00;99.90
4354;DHT22;11018;51.258;6.806;2023-04-07T02:40:18;10.00;99.90
4354;DHT22;11018;51.258;6.806;2023-04-07T02:42:43;9.90;99.90
4354;DHT22;11018;51.258;6.806;2023-04-07T02:45:10;9.90;99.90
4354;DHT22;11018;51.258;6.806;2023-04-07T02:47:36;9.90;99.90
4354;DHT22;11018;51.258;6.806;2023-04-07T02:50:02;9.90;99.90
4354;DHT22;11018;51.258;6.806;2023-04-07T02:52:28;9.90;99.90
4354;DHT22;11018;51.258;6.806;2023-04-07T02:54:53;9.80;99.90
4354;DHT22;11018;51.258;6.806;2023-04-07T02:57:19;9.70;99.90
4354;DHT22;11018;51.258;6.806;2023-04-07T02:59:44;9.70;99.90
4354;DHT22;11018;51.258;6.806;2023-04-07T03:02:10;9.70;99.90
4354;DHT22;11018;51.258;6.806;2023-04-07T03:04:36;9.60;99.90
4354;DHT22;11018;51.258;6.806;2023-04-07T03:07:01;9.60;99.90
4354;DHT22;11018;51.258;6.806;2023-04-07T03:09:27;9.60;99.90
4354;DHT22;11018;51.258;6.806;2023-04-07T03:11:53;9.60;99.90
4354;DHT22;11018;51.258;6.806;2023-04-07T03:14:18;9.60;99.90
4354;DHT22;11018;51.258;6.806;2023-04-07T03:16:44;9.60;99.90
4354;DHT22;11018;51.258;6.806;2023-04-07T03:19:10;9.60;99.90
4354;DHT22;11018;51.258;6.806;2023-04-07T03:21:37;9.50;99.90
4354;DHT22;11018;51.258;6.806;2023-04-07T03:24:03;9.60;99.90
4354;DHT22;11018;51.258;6.806;2023-04-07T03:26:28;9.50;99.90
4354;DHT22;11018;51.258;6.806;2023-04-07T03:28:54;9.40;99.90
4354;DHT22;11018;51.258;6.806;2023-04-07T03:31:19;9.40;99.90
4354;DHT22;11018;51.258;6.806;2023-04-07T03:33:45;9.30;99.90
4354;DHT22;11018;51.258;6.806;2023-04-07T03:36:11;9.30;99.90
4354;DHT22;11018;51.258;6.806;2023-04-07T03:38:36;9.30;99.90
4354;DHT22;11018;51.258;6.806;2023-04-07T03:41:02;9.30;99.90
4354;DHT22;11018;51.258;6.806;2023-04-07T03:43:27;9.30;99.90
4354;DHT22;11018;51.258;6.806;2023-04-07T03:45:53;9.20;99.90
4354;DHT22;11018;51.258;6.806;2023-04-07T03:48:19;9.20;99.90
4354;DHT22;11018;51.258;6.806;2023-04-07T03:50:45;9.30;99.90
4354;DHT22;11018;51.258;6.806;2023-04-07T03:53:11;9.30;99.90
4354;DHT22;11018;51.258;6.806;2023-04-07T03:55:39;9.30;99.90
4354;DHT22;11018;51.258;6.806;2023-04-07T03:58:04;9.30;99.90
4354;DHT22;11018;51.258;6.806;2023-04-07T04:00:30;9.30;99.90
4354;DHT22;11018;51.258;6.806;2023-04-07T04:02:58;9.30;99.90
4354;DHT22;11018;51.258;6.806;2023-04-07T04:05:23;9.30;99.90
4354;DHT22;11018;51.258;6.806;2023-04-07T04:07:49;9.30;99.90
4354;DHT22;11018;51.258;6.806;2023-04-07T04:10:15;9.30;99.90
4354;DHT22;11018;51.258;6.806;2023-04-07T04:12:41;9.30;99.90
4354;DHT22;11018;51.258;6.806;2023-04-07T04:15:07;9.30;99.90
4354;DHT22;11018;51.258;6.806;2023-04-07T04:17:33;9.40;99.90
4354;DHT22;11018;51.258;6.806;2023-04-07T04:19:58;9.30;99.90
4354;DHT22;11018;51.258;6.806;2023-04-07T04:22:24;9.30;99.90
4354;DHT22;11018;51.258;6.806;2023-04-07T04:24:49;9.30;99.90
4354;DHT22;11018;51.258;6.806;2023-04-07T04:27:15;9.40;99.90
4354;DHT22;11018;51.258;6.806;2023-04-07T04:29:40;9.40;99.90
4354;DHT22;11018;51.258;6.806;2023-04-07T04:32:06;9.40;99.90
4354;DHT22;11018;51.258;6.806;2023-04-07T04:34:31;9.30;99.90
4354;DHT22;11018;51.258;6.806;2023-04-07T04:36:57;9.30;99.90
4354;DHT22;11018;51.258;6.806;2023-04-07T04:39:22;9.40;99.90
4354;DHT22;11018;51.258;6.806;2023-04-07T04:41:48;9.40;99.90
4354;DHT22;11018;51.258;6.806;2023-04-07T04:44:13;9.50;99.90
4354;DHT22;11018;51.258;6.806;2023-04-07T04:46:39;9.40;99.90
4354;DHT22;11018;51.258;6.806;2023-04-07T04:49:05;9.40;99.90
4354;DHT22;11018;51.258;6.806;2023-04-07T04:51:31;9.40;99.90
4354;DHT22;11018;51.258;6.806;2023-04-07T04:53:56;9.50;99.90
4354;DHT22;11018;51.258;6.806;2023-04-07T04:56:22;9.50;99.90
4354;DHT22;11018;51.258;6.806;2023-04-07T04:58:48;9.40;99.90
4354;DHT22;11018;51.258;6.806;2023-04-07T05:01:13;9.30;99.90
4354;DHT22;11018;51.258;6.806;2023-04-07T05:03:39;9.20;99.90
4354;DHT22;11018;51.258;6.806;2023-04-07T05:06:05;9.10;99.90
4354;DHT22;11018;51.258;6.806;2023-04-07T05:08:31;9.00;99.90
4354;DHT22;11018;51.258;6.806;2023-04-07T05:10:56;9.00;99.90
4354;DHT22;11018;51.258;6.806;2023-04-07T05:13:22;8.90;99.90
4354;DHT22;11018;51.258;6.806;2023-04-07T05:15:48;8.80;99.90
4354;DHT22;11018;51.258;6.806;2023-04-07T05:18:14;8.70;99.90
4354;DHT22;11018;51.258;6.806;2023-04-07T05:20:39;8.70;99.90
4354;DHT22;11018;51.258;6.806;2023-04-07T05:23:05;8.70;99.90
4354;DHT22;11018;51.258;6.806;2023-04-07T05:25:31;8.70;99.90
4354;DHT22;11018;51.258;6.806;2023-04-07T05:27:59;8.80;99.90
4354;DHT22;11018;51.258;6.806;2023-04-07T05:30:24;8.80;99.90
4354;DHT22;11018;51.258;6.806;2023-04-07T05:32:51;8.80;99.90
4354;DHT22;11018;51.258;6.806;2023-04-07T05:35:17;8.80;99.90
4354;DHT22;11018;51.258;6.806;2023-04-07T05:37:43;8.80;99.90
4354;DHT22;11018;51.258;6.806;2023-04-07T05:40:08;8.80;99.90
4354;DHT22;11018;51.258;6.806;2023-04-07T05:42:34;8.80;99.90
4354;DHT22;11018;51.258;6.806;2023-04-07T05:45:00;8.80;99.90
4354;DHT22;11018;51.258;6.806;2023-04-07T05:47:26;8.80;99.90
4354;DHT22;11018;51.258;6.806;2023-04-07T05:49:51;8.80;99.90
4354;DHT22;11018;51.258;6.806;2023-04-07T05:52:17;8.80;99.90
4354;DHT22;11018;51.258;6.806;2023-04-07T05:54:42;8.80;99.90
4354;DHT22;11018;51.258;6.806;2023-04-07T05:57:08;8.80;99.90
4354;DHT22;11018;51.258;6.806;2023-04-07T05:59:34;8.70;99.90
4354;DHT22;11018;51.258;6.806;2023-04-07T06:01:59;8.70;99.90
4354;DHT22;11018;51.258;6.806;2023-04-07T06:04:25;8.70;99.90
4354;DHT22;11018;51.258;6.806;2023-04-07T06:06:51;8.80;99.90
4354;DHT22;11018;51.258;6.806;2023-04-07T06:09:23;8.80;99.90
4354;DHT22;11018;51.258;6.806;2023-04-07T06:11:48;8.80;99.90
4354;DHT22;11018;51.258;6.806;2023-04-07T06:14:16;8.80;99.90
4354;DHT22;11018;51.258;6.806;2023-04-07T06:16:41;8.70;99.90
4354;DHT22;11018;51.258;6.806;2023-04-07T06:19:07;8.80;99.90
4354;DHT22;11018;51.258;6.806;2023-04-07T06:21:33;8.70;99.90
4354;DHT22;11018;51.258;6.806;2023-04-07T06:23:58;8.80;99.90
4354;DHT22;11018;51.258;6.806;2023-04-07T06:26:24;8.80;99.90
4354;DHT22;11018;51.258;6.806;2023-04-07T06:28:51;8.80;99.90
4354;DHT22;11018;51.258;6.806;2023-04-07T06:31:16;8.80;99.90
4354;DHT22;11018;51.258;6.806;2023-04-07T06:33:43;8.90;99.90
4354;DHT22;11018;51.258;6.806;2023-04-07T06:36:09;8.90;99.90
4354;DHT22;11018;51.258;6.806;2023-04-07T06:38:35;8.90;99.90
4354;DHT22;11018;51.258;6.806;2023-04-07T06:41:01;9.00;99.90
4354;DHT22;11018;51.258;6.806;2023-04-07T06:43:27;9.00;99.90
4354;DHT22;11018;51.258;6.806;2023-04-07T06:45:52;9.00;99.90
4354;DHT22;11018;51.258;6.806;2023-04-07T06:48:18;9.00;99.90
4354;DHT22;11018;51.258;6.806;2023-04-07T06:50:50;9.00;99.90
4354;DHT22;11018;51.258;6.806;2023-04-07T06:53:16;9.10;99.90
4354;DHT22;11018;51.258;6.806;2023-04-07T06:55:41;9.10;99.90
4354;DHT22;11018;51.258;6.806;2023-04-07T06:58:07;9.10;99.90
4354;DHT22;11018;51.258;6.806;2023-04-07T07:00:32;9.10;99.90
4354;DHT22;11018;51.258;6.806;2023-04-07T07:02:58;9.10;99.90
4354;DHT22;11018;51.258;6.806;2023-04-07T07:05:24;9.10;99.90
4354;DHT22;11018;51.258;6.806;2023-04-07T07:07:49;9.10;99.90
4354;DHT22;11018;51.258;6.806;2023-04-07T07:10:16;9.10;99.90
4354;DHT22;11018;51.258;6.806;2023-04-07T07:12:41;9.10;99.90
4354;DHT22;11018;51.258;6.806;2023-04-07T07:15:07;9.10;99.90
4354;DHT22;11018;51.258;6.806;2023-04-07T07:17:34;9.20;99.90
4354;DHT22;11018;51.258;6.806;2023-04-07T07:19:59;9.10;99.90
4354;DHT22;11018;51.258;6.806;2023-04-07T07:22:25;9.10;99.90
4354;DHT22;11018;51.258;6.806;2023-04-07T07:24:51;9.10;99.90
4354;DHT22;11018;51.258;6.806;2023-04-07T07:27:16;9.20;99.90
4354;DHT22;11018;51.258;6.806;2023-04-07T07:29:42;9.20;99.90
4354;DHT22;11018;51.258;6.806;2023-04-07T07:32:07;9.40;99.90
4354;DHT22;11018;51.258;6.806;2023-04-07T07:34:33;9.40;99.90
4354;DHT22;11018;51.258;6.806;2023-04-07T07:36:58;9.50;99.90
4354;DHT22;11018;51.258;6.806;2023-04-07T07:39:25;9.60;99.90
4354;DHT22;11018;51.258;6.806;2023-04-07T07:41:51;9.50;99.90
4354;DHT22;11018;51.258;6.806;2023-04-07T07:44:17;9.60;99.90
4354;DHT22;11018;51.258;6.806;2023-04-07T07:46:44;9.60;99.90
4354;DHT22;11018;51.258;6.806;2023-04-07T07:49:10;9.60;99.90
4354;DHT22;11018;51.258;6.806;2023-04-07T07:51:36;9.70;99.90
4354;DHT22;11018;51.258;6.806;2023-04-07T07:54:02;9.80;99.90
4354;DHT22;11018;51.258;6.806;2023-04-07T07:56:27;9.80;98.50
4354;DHT22;11018;51.258;6.806;2023-04-07T07:58:53;9.80;96.50
4354;DHT22;11018;51.258;6.806;2023-04-07T08:01:18;9.70;97.40
4354;DHT22;11018;51.258;6.806;2023-04-07T08:03:44;9.70;99.90
4354;DHT22;11018;51.258;6.806;2023-04-07T08:06:10;9.70;99.20
4354;DHT22;11018;51.258;6.806;2023-04-07T08:08:36;9.70;99.90
4354;DHT22;11018;51.258;6.806;2023-04-07T08:11:01;9.70;99.90
4354;DHT22;11018;51.258;6.806;2023-04-07T08:13:27;9.70;99.90
4354;DHT22;11018;51.258;6.806;2023-04-07T08:15:53;9.70;99.90
4354;DHT22;11018;51.258;6.806;2023-04-07T08:18:18;9.70;99.90
4354;DHT22;11018;51.258;6.806;2023-04-07T08:20:45;9.90;99.90
4354;DHT22;11018;51.258;6.806;2023-04-07T08:23:11;9.80;99.90
4354;DHT22;11018;51.258;6.806;2023-04-07T08:25:37;9.90;99.90
4354;DHT22;11018;51.258;6.806;2023-04-07T08:28:04;10.00;99.90
4354;DHT22;11018;51.258;6.806;2023-04-07T08:30:30;10.10;99.10
4354;DHT22;11018;51.258;6.806;2023-04-07T08:32:56;10.10;93.20
4354;DHT22;11018;51.258;6.806;2023-04-07T08:35:22;10.10;95.70
4354;DHT22;11018;51.258;6.806;2023-04-07T08:37:47;10.10;97.80
4354;DHT22;11018;51.258;6.806;2023-04-07T08:40:14;10.20;96.60
4354;DHT22;11018;51.258;6.806;2023-04-07T08:42:41;10.10;97.60
4354;DHT22;11018;51.258;6.806;2023-04-07T08:45:08;10.00;99.90
4354;DHT22;11018;51.258;6.806;2023-04-07T08:47:35;10.00;99.90
4354;DHT22;11018;51.258;6.806;2023-04-07T08:50:03;10.00;99.90
4354;DHT22;11018;51.258;6.806;2023-04-07T08:52:49;9.90;99.90
4354;DHT22;11018;51.258;6.806;2023-04-07T08:55:15;9.80;99.90
4354;DHT22;11018;51.258;6.806;2023-04-07T08:57:41;9.80;99.90
4354;DHT22;11018;51.258;6.806;2023-04-07T09:00:07;9.70;99.90
4354;DHT22;11018;51.258;6.806;2023-04-07T09:02:34;9.70;99.90
4354;DHT22;11018;51.258;6.806;2023-04-07T09:05:03;9.90;99.90
4354;DHT22;11018;51.258;6.806;2023-04-07T09:07:34;9.90;99.50
4354;DHT22;11018;51.258;6.806;2023-04-07T09:09:59;9.90;99.90
4354;DHT22;11018;51.258;6.806;2023-04-07T09:12:29;10.00;99.90
4354;DHT22;11018;51.258;6.806;2023-04-07T09:14:55;10.10;99.90
4354;DHT22;11018;51.258;6.806;2023-04-07T09:17:21;10.00;99.30
4354;DHT22;11018;51.258;6.806;2023-04-07T09:19:47;10.10;99.90
4354;DHT22;11018;51.258;6.806;2023-04-07T09:22:13;10.10;99.90
4354;DHT22;11018;51.258;6.806;2023-04-07T09:24:40;10.00;95.90
4354;DHT22;11018;51.258;6.806;2023-04-07T09:27:13;9.90;99.70
4354;DHT22;11018;51.258;6.806;2023-04-07T09:29:41;9.90;99.90
4354;DHT22;11018;51.258;6.806;2023-04-07T09:32:08;10.00;99.90
4354;DHT22;11018;51.258;6.806;2023-04-07T09:34:36;10.00;99.90
4354;DHT22;11018;51.258;6.806;2023-04-07T09:37:04;10.00;98.70
4354;DHT22;11018;51.258;6.806;2023-04-07T09:39:30;10.20;97.10
4354;DHT22;11018;51.258;6.806;2023-04-07T09:41:56;10.30;92.00
4354;DHT22;11018;51.258;6.806;2023-04-07T09:44:23;10.30;92.60
4354;DHT22;11018;51.258;6.806;2023-04-07T09:46:52;10.50;90.30
4354;DHT22;11018;51.258;6.806;2023-04-07T09:49:19;10.50;85.20
4354;DHT22;11018;51.258;6.806;2023-04-07T09:51:56;10.40;85.10
4354;DHT22;11018;51.258;6.806;2023-04-07T09:54:36;10.50;86.20
4354;DHT22;11018;51.258;6.806;2023-04-07T09:57:03;10.60;83.60
4354;DHT22;11018;51.258;6.806;2023-04-07T09:59:30;10.50;83.30
4354;DHT22;11018;51.258;6.806;2023-04-07T10:01:56;10.50;83.40
4354;DHT22;11018;51.258;6.806;2023-04-07T10:04:23;10.50;83.10
4354;DHT22;11018;51.258;6.806;2023-04-07T10:06:49;10.60;81.80
4354;DHT22;11018;51.258;6.806;2023-04-07T10:09:15;10.60;79.20
4354;DHT22;11018;51.258;6.806;2023-04-07T10:11:42;10.80;80.80
4354;DHT22;11018;51.258;6.806;2023-04-07T10:14:11;10.90;80.00
4354;DHT22;11018;51.258;6.806;2023-04-07T10:16:37;10.80;77.80
4354;DHT22;11018;51.258;6.806;2023-04-07T10:19:03;10.80;78.10
4354;DHT22;11018;51.258;6.806;2023-04-07T10:21:32;10.80;78.30
4354;DHT22;11018;51.258;6.806;2023-04-07T10:26:58;11.00;73.80
4354;DHT22;11018;51.258;6.806;2023-04-07T10:29:28;10.90;74.70
4354;DHT22;11018;51.258;6.806;2023-04-07T10:31:55;11.00;74.20
4354;DHT22;11018;51.258;6.806;2023-04-07T10:37:21;11.10;73.70
4354;DHT22;11018;51.258;6.806;2023-04-07T10:39:47;11.10;74.60
4354;DHT22;11018;51.258;6.806;2023-04-07T10:45:04;10.80;72.90
4354;DHT22;11018;51.258;6.806;2023-04-07T10:47:30;10.80;75.70
4354;DHT22;11018;51.258;6.806;2023-04-07T10:52:37;10.70;77.60
4354;DHT22;11018;51.258;6.806;2023-04-07T10:58:19;10.90;74.60
4354;DHT22;11018;51.258;6.806;2023-04-07T11:03:32;11.30;74.80
4354;DHT22;11018;51.258;6.806;2023-04-07T11:06:12;11.40;71.60
4354;DHT22;11018;51.258;6.806;2023-04-07T11:08:45;11.40;67.70
4354;DHT22;11018;51.258;6.806;2023-04-07T11:11:18;11.30;71.50
4354;DHT22;11018;51.258;6.806;2023-04-07T11:13:48;11.30;72.50
4354;DHT22;11018;51.258;6.806;2023-04-07T11:16:16;11.40;72.00
4354;DHT22;11018;51.258;6.806;2023-04-07T11:18:43;11.50;66.00
4354;DHT22;11018;51.258;6.806;2023-04-07T11:21:09;11.20;69.50
4354;DHT22;11018;51.258;6.806;2023-04-07T11:23:41;11.10;70.20
4354;DHT22;11018;51.258;6.806;2023-04-07T11:26:11;11.20;71.90
4354;DHT22;11018;51.258;6.806;2023-04-07T11:28:52;11.60;69.70
4354;DHT22;11018;51.258;6.806;2023-04-07T11:31:24;11.60;62.60
4354;DHT22;11018;51.258;6.806;2023-04-07T11:33:52;11.40;65.80
4354;DHT22;11018;51.258;6.806;2023-04-07T11:36:29;11.10;68.00
4354;DHT22;11018;51.258;6.806;2023-04-07T11:38:55;11.20;72.00
4354;DHT22;11018;51.258;6.806;2023-04-07T11:41:22;10.90;67.70
4354;DHT22;11018;51.258;6.806;2023-04-07T11:43:48;10.80;73.90
4354;DHT22;11018;51.258;6.806;2023-04-07T11:46:16;10.80;73.70
4354;DHT22;11018;51.258;6.806;2023-04-07T11:48:44;11.20;73.50
4354;DHT22;11018;51.258;6.806;2023-04-07T11:51:21;11.20;68.90
4354;DHT22;11018;51.258;6.806;2023-04-07T11:53:53;11.20;74.00
4354;DHT22;11018;51.258;6.806;2023-04-07T11:56:19;11.00;70.30
4354;DHT22;11018;51.258;6.806;2023-04-07T11:58:55;10.90;73.30
4354;DHT22;11018;51.258;6.806;2023-04-07T12:01:21;10.70;75.00
4354;DHT22;11018;51.258;6.806;2023-04-07T12:04:02;10.70;75.70
4354;DHT22;11018;51.258;6.806;2023-04-07T12:06:32;10.60;76.20
4354;DHT22;11018;51.258;6.806;2023-04-07T12:09:00;10.50;76.30
4354;DHT22;11018;51.258;6.806;2023-04-07T12:11:26;10.60;76.90
4354;DHT22;11018;51.258;6.806;2023-04-07T12:13:52;10.80;75.40
4354;DHT22;11018;51.258;6.806;2023-04-07T12:16:19;10.80;74.00
4354;DHT22;11018;51.258;6.806;2023-04-07T12:18:45;10.80;71.90
4354;DHT22;11018;51.258;6.806;2023-04-07T12:21:10;10.80;73.50
4354;DHT22;11018;51.258;6.806;2023-04-07T12:23:36;11.00;74.90
4354;DHT22;11018;51.258;6.806;2023-04-07T12:26:01;11.20;70.90
4354;DHT22;11018;51.258;6.806;2023-04-07T12:28:27;11.50;68.80
4354;DHT22;11018;51.258;6.806;2023-04-07T12:30:53;11.80;67.00
4354;DHT22;11018;51.258;6.806;2023-04-07T12:33:19;12.00;59.60
4354;DHT22;11018;51.258;6.806;2023-04-07T12:35:45;12.00;60.50
4354;DHT22;11018;51.258;6.806;2023-04-07T12:38:11;12.00;58.20
4354;DHT22;11018;51.258;6.806;2023-04-07T12:40:36;11.80;59.90
4354;DHT22;11018;51.258;6.806;2023-04-07T12:43:03;11.60;63.20
4354;DHT22;11018;51.258;6.806;2023-04-07T12:45:29;11.60;64.70
4354;DHT22;11018;51.258;6.806;2023-04-07T12:47:56;11.90;60.40
4354;DHT22;11018;51.258;6.806;2023-04-07T12:50:21;11.90;62.40
4354;DHT22;11018;51.258;6.806;2023-04-07T12:52:47;11.80;59.00
4354;DHT22;11018;51.258;6.806;2023-04-07T12:55:13;11.70;62.80
4354;DHT22;11018;51.258;6.806;2023-04-07T12:57:39;11.60;62.30
4354;DHT22;11018;51.258;6.806;2023-04-07T13:00:05;11.70;62.80
4354;DHT22;11018;51.258;6.806;2023-04-07T13:02:30;11.30;61.60
4354;DHT22;11018;51.258;6.806;2023-04-07T13:04:56;11.20;68.10
4354;DHT22;11018;51.258;6.806;2023-04-07T13:07:21;11.30;70.20
4354;DHT22;11018;51.258;6.806;2023-04-07T13:09:47;11.50;68.70
4354;DHT22;11018;51.258;6.806;2023-04-07T13:12:12;11.70;63.60
4354;DHT22;11018;51.258;6.806;2023-04-07T13:14:39;11.80;62.70
4354;DHT22;11018;51.258;6.806;2023-04-07T13:17:05;11.80;60.60
4354;DHT22;11018;51.258;6.806;2023-04-07T13:19:31;11.70;63.50
4354;DHT22;11018;51.258;6.806;2023-04-07T13:21:57;11.60;65.00
4354;DHT22;11018;51.258;6.806;2023-04-07T13:24:22;11.50;65.80
4354;DHT22;11018;51.258;6.806;2023-04-07T13:26:49;11.50;71.40
4354;DHT22;11018;51.258;6.806;2023-04-07T13:29:15;11.40;70.30
4354;DHT22;11018;51.258;6.806;2023-04-07T13:31:41;11.30;68.10
4354;DHT22;11018;51.258;6.806;2023-04-07T13:34:07;11.10;70.40
4354;DHT22;11018;51.258;6.806;2023-04-07T13:36:33;11.10;73.30
4354;DHT22;11018;51.258;6.806;2023-04-07T13:38:59;11.00;73.60
4354;DHT22;11018;51.258;6.806;2023-04-07T13:41:26;11.10;73.30
4354;DHT22;11018;51.258;6.806;2023-04-07T13:43:52;11.20;73.40
4354;DHT22;11018;51.258;6.806;2023-04-07T13:46:17;11.20;70.90
4354;DHT22;11018;51.258;6.806;2023-04-07T13:48:46;11.20;68.90
4354;DHT22;11018;51.258;6.806;2023-04-07T13:51:12;11.20;70.40
4354;DHT22;11018;51.258;6.806;2023-04-07T13:53:37;11.20;73.10
4354;DHT22;11018;51.258;6.806;2023-04-07T13:56:03;11.40;70.00
4354;DHT22;11018;51.258;6.806;2023-04-07T13:58:35;11.40;68.80
4354;DHT22;11018;51.258;6.806;2023-04-07T14:01:03;11.10;71.20
4354;DHT22;11018;51.258;6.806;2023-04-07T14:03:31;11.10;72.40
4354;DHT22;11018;51.258;6.806;2023-04-07T14:05:57;11.10;77.30
4354;DHT22;11018;51.258;6.806;2023-04-07T14:08:26;11.20;77.90
4354;DHT22;11018;51.258;6.806;2023-04-07T14:10:51;11.30;78.00
4354;DHT22;11018;51.258;6.806;2023-04-07T14:13:17;11.60;73.70
4354;DHT22;11018;51.258;6.806;2023-04-07T14:15:43;11.70;64.50
4354;DHT22;11018;51.258;6.806;2023-04-07T14:18:09;11.80;66.00
4354;DHT22;11018;51.258;6.806;2023-04-07T14:20:35;11.80;65.70
4354;DHT22;11018;51.258;6.806;2023-04-07T14:23:01;11.90;66.50
4354;DHT22;11018;51.258;6.806;2023-04-07T14:25:26;11.70;63.90
4354;DHT22;11018;51.258;6.806;2023-04-07T14:27:52;11.50;69.70
4354;DHT22;11018;51.258;6.806;2023-04-07T14:30:18;11.50;71.10
4354;DHT22;11018;51.258;6.806;2023-04-07T14:32:43;11.40;67.80
4354;DHT22;11018;51.258;6.806;2023-04-07T14:35:09;11.40;69.10
4354;DHT22;11018;51.258;6.806;2023-04-07T14:37:35;11.40;70.20
4354;DHT22;11018;51.258;6.806;2023-04-07T14:40:04;11.30;70.80
4354;DHT22;11018;51.258;6.806;2023-04-07T14:42:30;11.30;73.60
4354;DHT22;11018;51.258;6.806;2023-04-07T14:44:57;11.30;74.00
4354;DHT22;11018;51.258;6.806;2023-04-07T14:47:23;11.50;75.70
4354;DHT22;11018;51.258;6.806;2023-04-07T14:49:49;11.40;71.90
4354;DHT22;11018;51.258;6.806;2023-04-07T14:52:15;11.20;73.90
4354;DHT22;11018;51.258;6.806;2023-04-07T14:54:41;10.90;79.70
4354;DHT22;11018;51.258;6.806;2023-04-07T14:57:06;10.90;79.00
4354;DHT22;11018;51.258;6.806;2023-04-07T14:59:32;10.90;79.60
4354;DHT22;11018;51.258;6.806;2023-04-07T15:01:58;11.00;78.10
4354;DHT22;11018;51.258;6.806;2023-04-07T15:04:24;11.00;76.60
4354;DHT22;11018;51.258;6.806;2023-04-07T15:06:49;11.10;71.70
4354;DHT22;11018;51.258;6.806;2023-04-07T15:09:15;11.30;73.20
4354;DHT22;11018;51.258;6.806;2023-04-07T15:11:40;11.30;67.80
4354;DHT22;11018;51.258;6.806;2023-04-07T15:14:06;11.10;70.10
4354;DHT22;11018;51.258;6.806;2023-04-07T15:16:32;11.20;73.50
4354;DHT22;11018;51.258;6.806;2023-04-07T15:18:58;11.30;70.40
4354;DHT22;11018;51.258;6.806;2023-04-07T15:21:23;11.30;68.20
4354;DHT22;11018;51.258;6.806;2023-04-07T15:23:50;11.20;66.20
4354;DHT22;11018;51.258;6.806;2023-04-07T15:26:16;11.30;68.70
4354;DHT22;11018;51.258;6.806;2023-04-07T15:28:41;11.40;68.80
4354;DHT22;11018;51.258;6.806;2023-04-07T15:31:07;11.60;67.10
4354;DHT22;11018;51.258;6.806;2023-04-07T15:33:35;11.70;66.50
4354;DHT22;11018;51.258;6.806;2023-04-07T15:36:01;11.70;65.80
4354;DHT22;11018;51.258;6.806;2023-04-07T15:38:29;11.60;66.20
4354;DHT22;11018;51.258;6.806;2023-04-07T15:40:54;11.60;66.00
4354;DHT22;11018;51.258;6.806;2023-04-07T15:43:20;11.60;67.50
4354;DHT22;11018;51.258;6.806;2023-04-07T15:45:46;11.60;65.80
4354;DHT22;11018;51.258;6.806;2023-04-07T15:48:12;11.80;65.50
4354;DHT22;11018;51.258;6.806;2023-04-07T15:50:38;12.00;60.40
4354;DHT22;11018;51.258;6.806;2023-04-07T15:53:04;12.00;59.80
4354;DHT22;11018;51.258;6.806;2023-04-07T15:55:31;12.00;62.60
4354;DHT22;11018;51.258;6.806;2023-04-07T15:57:57;12.10;63.50
4354;DHT22;11018;51.258;6.806;2023-04-07T16:00:24;12.00;61.90
4354;DHT22;11018;51.258;6.806;2023-04-07T16:02:49;12.00;63.20
4354;DHT22;11018;51.258;6.806;2023-04-07T16:05:15;11.70;63.90
4354;DHT22;11018;51.258;6.806;2023-04-07T16:07:41;11.60;62.50
4354;DHT22;11018;51.258;6.806;2023-04-07T16:10:07;11.30;66.30
4354;DHT22;11018;51.258;6.806;2023-04-07T16:12:33;11.10;68.00
4354;DHT22;11018;51.258;6.806;2023-04-07T16:15:01;11.00;71.40